createdAt,value
2019-03-04T00:00:45.727Z,992.50
2019-03-04T00:01:45.688Z,992.45
2019-03-04T00:02:45.640Z,992.44
2019-03-04T00:03:45.631Z,992.38
2019-03-04T00:04:45.550Z,992.37
2019-03-04T00:05:45.517Z,992.29
2019-03-04T00:06:45.483Z,992.37
2019-03-04T00:07:45.458Z,992.28
2019-03-04T00:08:45.413Z,992.22
2019-03-04T00:09:45.362Z,992.26
2019-03-04T00:10:45.307Z,992.26
2019-03-04T00:11:45.265Z,992.25
2019-03-04T00:12:45.235Z,992.23
2019-03-04T00:13:45.217Z,992.25
2019-03-04T00:14:45.183Z,992.18
2019-03-04T00:15:45.107Z,992.15
2019-03-04T00:16:45.063Z,992.13
2019-03-04T00:17:45.017Z,992.07
2019-03-04T00:18:45.012Z,992.08
2019-03-04T00:19:44.939Z,991.93
2019-03-04T00:20:44.904Z,992.02
2019-03-04T00:21:44.861Z,992.05
2019-03-04T00:22:44.814Z,991.92
2019-03-04T00:23:44.778Z,991.91
2019-03-04T00:24:44.764Z,991.82
2019-03-04T00:25:44.704Z,991.81
2019-03-04T00:26:44.658Z,991.70
2019-03-04T00:27:44.622Z,991.67
2019-03-04T00:28:44.599Z,991.59
2019-03-04T00:29:44.530Z,991.66
2019-03-04T00:30:44.487Z,991.65
2019-03-04T00:31:44.448Z,991.54
2019-03-04T00:32:45.183Z,991.50
2019-03-04T00:33:44.371Z,991.43
2019-03-04T00:34:44.351Z,991.42
2019-03-04T00:35:44.289Z,991.26
2019-03-04T00:36:44.265Z,991.27
2019-03-04T00:37:44.199Z,991.10
2019-03-04T00:38:44.164Z,991.20
2019-03-04T00:39:44.120Z,991.28
2019-03-04T00:40:44.085Z,991.28
2019-03-04T00:41:44.056Z,991.21
2019-03-04T00:42:44.000Z,991.18
2019-03-04T00:43:43.954Z,991.09
2019-03-04T00:44:43.921Z,991.15
2019-03-04T00:45:43.876Z,991.13
2019-03-04T00:46:43.862Z,991.06
2019-03-04T00:47:43.805Z,991.02
2019-03-04T00:48:43.747Z,990.93
2019-03-04T00:49:43.704Z,990.95
2019-03-04T00:50:43.665Z,990.93
2019-03-04T00:51:43.649Z,991.03
2019-03-04T00:52:43.585Z,990.97
2019-03-04T00:53:43.549Z,991.01
2019-03-04T00:54:43.527Z,991.09
2019-03-04T00:55:43.491Z,991.05
2019-03-04T00:56:43.425Z,991.00
2019-03-04T00:57:43.383Z,990.98
2019-03-04T00:58:43.356Z,991.00
2019-03-04T00:59:43.301Z,991.01
2019-03-04T01:00:43.252Z,990.96
2019-03-04T01:01:43.244Z,990.94
2019-03-04T01:02:43.171Z,991.05
2019-03-04T01:03:43.139Z,991.15
2019-03-04T01:04:43.096Z,991.26
2019-03-04T01:05:43.059Z,991.24
2019-03-04T01:06:43.014Z,991.20
2019-03-04T01:07:42.992Z,991.20
2019-03-04T01:08:42.922Z,991.09
2019-03-04T01:09:42.886Z,990.89
2019-03-04T01:10:42.873Z,990.97
2019-03-04T01:11:42.834Z,990.95
2019-03-04T01:12:42.762Z,991.03
2019-03-04T01:13:42.723Z,990.85
2019-03-04T01:14:42.684Z,991.09
2019-03-04T01:15:42.634Z,991.04
2019-03-04T01:16:42.603Z,991.11
2019-03-04T01:17:42.584Z,991.01
2019-03-04T01:18:42.531Z,991.01
2019-03-04T01:19:42.481Z,991.08
2019-03-04T01:20:42.439Z,991.05
2019-03-04T01:21:51.457Z,990.98
2019-03-04T01:22:42.383Z,991.07
2019-03-04T01:23:42.314Z,990.97
2019-03-04T01:24:42.265Z,991.05
2019-03-04T01:25:42.229Z,991.08
2019-03-04T01:26:42.198Z,991.10
2019-03-04T01:27:42.179Z,991.04
2019-03-04T01:28:42.130Z,990.93
2019-03-04T01:29:42.071Z,990.92
2019-03-04T01:30:42.021Z,990.81
2019-03-04T01:31:43.604Z,990.73
2019-03-04T01:32:41.951Z,990.71
2019-03-04T01:33:41.963Z,990.64
2019-03-04T01:34:41.869Z,990.58
2019-03-04T01:35:41.826Z,990.50
2019-03-04T01:36:41.782Z,990.41
2019-03-04T01:37:41.743Z,990.39
2019-03-04T01:38:41.696Z,990.47
2019-03-04T01:39:41.677Z,990.42
2019-03-04T01:40:41.619Z,990.52
2019-03-04T01:41:41.577Z,990.48
2019-03-04T01:42:41.536Z,990.58
2019-03-04T01:43:41.517Z,990.51
2019-03-04T01:44:41.447Z,990.45
2019-03-04T01:45:41.406Z,990.34
2019-03-04T01:46:41.378Z,990.27
2019-03-04T01:47:41.331Z,990.09
2019-03-04T01:48:41.291Z,989.98
2019-03-04T01:49:41.271Z,990.14
2019-03-04T01:50:41.208Z,990.23
2019-03-04T01:51:41.161Z,990.20
2019-03-04T01:52:41.122Z,990.18
2019-03-04T01:53:41.082Z,990.06
2019-03-04T01:54:41.077Z,990.17
2019-03-04T01:55:41.007Z,990.08
2019-03-04T01:56:40.958Z,989.89
2019-03-04T01:57:40.914Z,989.79
2019-03-04T01:58:40.881Z,989.84
2019-03-04T01:59:40.842Z,989.96
2019-03-04T02:00:40.828Z,989.91
2019-03-04T02:01:40.763Z,990.10
2019-03-04T02:02:40.716Z,989.83
2019-03-04T02:03:40.672Z,989.95
2019-03-04T02:04:40.651Z,989.99
2019-03-04T02:05:40.613Z,989.89
2019-03-04T02:06:40.558Z,989.82
2019-03-04T02:07:40.517Z,989.68
2019-03-04T02:08:40.477Z,989.61
2019-03-04T02:09:40.434Z,989.67
2019-03-04T02:10:40.471Z,989.60
2019-03-04T02:11:40.400Z,989.52
2019-03-04T02:12:40.306Z,989.48
2019-03-04T02:13:40.267Z,989.44
2019-03-04T02:14:40.224Z,989.24
2019-03-04T02:15:40.209Z,989.35
2019-03-04T02:16:40.152Z,989.33
2019-03-04T02:17:40.105Z,989.22
2019-03-04T02:18:40.064Z,989.19
2019-03-04T02:19:40.018Z,989.16
2019-03-04T02:20:40.057Z,989.06
2019-03-04T02:21:39.944Z,988.77
2019-03-04T02:22:39.899Z,988.78
2019-03-04T02:23:39.851Z,988.64
2019-03-04T02:24:39.818Z,988.64
2019-03-04T02:25:39.803Z,988.47
2019-03-04T02:26:39.734Z,988.32
2019-03-04T02:27:39.726Z,988.32
2019-03-04T02:28:39.645Z,988.49
2019-03-04T02:29:39.635Z,988.46
2019-03-04T02:30:39.581Z,988.47
2019-03-04T02:31:39.538Z,988.46
2019-03-04T02:32:39.500Z,988.55
2019-03-04T02:33:39.448Z,988.72
2019-03-04T02:34:39.404Z,988.62
2019-03-04T02:35:39.386Z,988.55
2019-03-04T02:36:39.318Z,988.57
2019-03-04T02:37:39.275Z,988.48
2019-03-04T02:38:39.244Z,988.50
2019-03-04T02:39:39.207Z,988.51
2019-03-04T02:40:39.159Z,988.38
2019-03-04T02:41:39.152Z,988.36
2019-03-04T02:42:39.072Z,988.33
2019-03-04T02:43:39.040Z,988.39
2019-03-04T02:44:38.997Z,988.34
2019-03-04T02:45:38.953Z,988.29
2019-03-04T02:46:38.935Z,988.26
2019-03-04T02:47:38.861Z,988.24
2019-03-04T02:48:38.898Z,988.28
2019-03-04T02:49:38.783Z,988.15
2019-03-04T02:50:38.757Z,988.11
2019-03-04T02:51:38.710Z,987.98
2019-03-04T02:52:38.704Z,987.97
2019-03-04T02:53:38.627Z,987.85
2019-03-04T02:54:38.585Z,987.84
2019-03-04T02:55:38.538Z,987.92
2019-03-04T02:56:38.501Z,987.80
2019-03-04T02:57:38.469Z,987.78
2019-03-04T02:58:38.457Z,987.74
2019-03-04T02:59:38.386Z,987.74
2019-03-04T03:00:38.338Z,987.70
2019-03-04T03:01:38.317Z,987.65
2019-03-04T03:02:38.261Z,987.64
2019-03-04T03:03:38.219Z,987.56
2019-03-04T03:04:38.172Z,987.45
2019-03-04T03:05:38.136Z,987.44
2019-03-04T03:06:38.084Z,987.61
2019-03-04T03:07:38.069Z,987.55
2019-03-04T03:08:38.004Z,987.53
2019-03-04T03:09:37.961Z,987.47
2019-03-04T03:10:37.931Z,987.47
2019-03-04T03:11:37.891Z,987.49
2019-03-04T03:12:37.868Z,987.44
2019-03-04T03:13:37.816Z,987.34
2019-03-04T03:14:37.753Z,987.33
2019-03-04T03:15:37.722Z,987.30
2019-03-04T03:16:37.677Z,987.35
2019-03-04T03:17:37.666Z,986.98
2019-03-04T03:18:37.595Z,987.13
2019-03-04T03:19:37.552Z,987.05
2019-03-04T03:20:37.517Z,986.93
2019-03-04T03:21:37.467Z,986.83
2019-03-04T03:22:37.433Z,986.71
2019-03-04T03:23:37.415Z,986.71
2019-03-04T03:24:46.517Z,986.62
2019-03-04T03:25:37.302Z,986.61
2019-03-04T03:26:37.264Z,986.32
2019-03-04T03:27:37.270Z,986.38
2019-03-04T03:28:37.187Z,986.29
2019-03-04T03:29:37.170Z,986.17
2019-03-04T03:30:37.105Z,986.15
2019-03-04T03:31:37.065Z,986.00
2019-03-04T03:32:37.029Z,986.04
2019-03-04T03:33:37.005Z,985.96
2019-03-04T03:34:36.953Z,986.02
2019-03-04T03:35:36.923Z,986.04
2019-03-04T03:36:36.856Z,985.80
2019-03-04T03:37:36.817Z,986.01
2019-03-04T03:38:36.791Z,986.15
2019-03-04T03:39:36.755Z,986.52
2019-03-04T03:40:36.702Z,986.48
2019-03-04T03:41:36.672Z,986.49
2019-03-04T03:42:36.619Z,986.52
2019-03-04T03:43:36.576Z,986.39
2019-03-04T03:44:36.546Z,986.44
2019-03-04T03:45:36.485Z,986.15
2019-03-04T03:46:36.455Z,986.21
2019-03-04T03:47:36.415Z,985.91
2019-03-04T03:48:36.366Z,985.90
2019-03-04T03:49:36.334Z,985.94
2019-03-04T03:50:36.306Z,985.89
2019-03-04T03:51:36.242Z,986.07
2019-03-04T03:52:36.203Z,986.02
2019-03-04T03:53:36.165Z,986.28
2019-03-04T03:54:36.132Z,986.08
2019-03-04T03:55:36.108Z,986.10
2019-03-04T03:56:36.033Z,986.01
2019-03-04T03:57:35.999Z,986.10
2019-03-04T03:58:35.953Z,986.24
2019-03-04T03:59:35.933Z,986.21
2019-03-04T04:00:35.903Z,986.07
2019-03-04T04:01:35.863Z,986.01
2019-03-04T04:02:35.786Z,985.78
2019-03-04T04:03:35.747Z,985.87
2019-03-04T04:04:35.718Z,986.00
2019-03-04T04:05:35.675Z,986.12
2019-03-04T04:06:35.637Z,985.77
2019-03-04T04:07:35.612Z,985.90
2019-03-04T04:08:35.550Z,985.75
2019-03-04T04:09:35.504Z,985.74
2019-03-04T04:10:35.487Z,985.75
2019-03-04T04:11:35.422Z,985.70
2019-03-04T04:12:35.388Z,985.53
2019-03-04T04:13:35.346Z,985.51
2019-03-04T04:14:35.308Z,985.19
2019-03-04T04:15:35.300Z,985.20
2019-03-04T04:16:35.214Z,984.91
2019-03-04T04:17:35.179Z,985.10
2019-03-04T04:18:35.147Z,985.05
2019-03-04T04:19:35.110Z,984.93
2019-03-04T04:20:35.081Z,984.85
2019-03-04T04:21:35.020Z,984.91
2019-03-04T04:22:34.974Z,985.13
2019-03-04T04:23:34.933Z,985.09
2019-03-04T04:24:34.892Z,985.22
2019-03-04T04:25:34.856Z,985.08
2019-03-04T04:26:34.833Z,985.12
2019-03-04T04:27:34.774Z,985.15
2019-03-04T04:28:34.722Z,985.08
2019-03-04T04:29:34.694Z,985.15
2019-03-04T04:30:34.662Z,984.98
2019-03-04T04:31:34.623Z,984.99
2019-03-04T04:32:34.596Z,985.06
2019-03-04T04:33:34.527Z,985.08
2019-03-04T04:34:34.487Z,985.28
2019-03-04T04:35:34.459Z,985.10
2019-03-04T04:36:34.415Z,985.21
2019-03-04T04:37:34.388Z,985.22
2019-03-04T04:38:34.320Z,985.34
2019-03-04T04:39:34.285Z,985.24
2019-03-04T04:40:34.230Z,985.16
2019-03-04T04:41:34.187Z,985.23
2019-03-04T04:42:34.152Z,985.45
2019-03-04T04:43:34.132Z,985.24
2019-03-04T04:44:34.080Z,985.22
2019-03-04T04:45:34.040Z,985.19
2019-03-04T04:46:34.025Z,985.23
2019-03-04T04:47:33.959Z,985.27
2019-03-04T04:48:33.927Z,985.20
2019-03-04T04:49:33.911Z,985.06
2019-03-04T04:50:33.839Z,985.15
2019-03-04T04:51:33.799Z,985.06
2019-03-04T04:52:33.767Z,985.16
2019-03-04T04:53:33.730Z,984.99
2019-03-04T04:54:33.662Z,984.96
2019-03-04T04:55:33.628Z,984.98
2019-03-04T04:56:33.595Z,985.04
2019-03-04T04:57:33.543Z,984.93
2019-03-04T04:58:33.531Z,984.89
2019-03-04T04:59:33.471Z,984.85
2019-03-04T05:00:33.428Z,984.91
2019-03-04T05:01:33.376Z,984.76
2019-03-04T05:02:33.334Z,984.82
2019-03-04T05:03:33.297Z,984.74
2019-03-04T05:04:33.287Z,984.68
2019-03-04T05:05:33.219Z,984.67
2019-03-04T05:06:33.177Z,984.67
2019-03-04T05:07:33.138Z,984.82
2019-03-04T05:08:33.123Z,984.65
2019-03-04T05:09:33.078Z,984.44
2019-03-04T05:10:33.012Z,984.47
2019-03-04T05:11:32.985Z,984.41
2019-03-04T05:12:32.926Z,984.25
2019-03-04T05:13:32.892Z,984.59
2019-03-04T05:14:32.878Z,984.58
2019-03-04T05:15:32.805Z,984.55
2019-03-04T05:16:32.773Z,984.61
2019-03-04T05:17:32.748Z,984.57
2019-03-04T05:18:32.695Z,984.52
2019-03-04T05:19:32.705Z,984.59
2019-03-04T05:20:32.602Z,984.56
2019-03-04T05:21:32.580Z,984.34
2019-03-04T05:22:32.523Z,984.34
2019-03-04T05:23:32.487Z,984.42
2019-03-04T05:24:32.442Z,984.35
2019-03-04T05:25:32.419Z,984.32
2019-03-04T05:26:32.351Z,984.27
2019-03-04T05:27:32.310Z,984.28
2019-03-04T05:28:32.281Z,984.24
2019-03-04T05:29:32.232Z,984.10
2019-03-04T05:30:32.221Z,984.26
2019-03-04T05:31:32.161Z,984.44
2019-03-04T05:32:32.118Z,984.33
2019-03-04T05:33:32.067Z,984.25
2019-03-04T05:34:32.029Z,984.33
2019-03-04T05:35:32.030Z,984.29
2019-03-04T05:36:31.975Z,984.23
2019-03-04T05:37:31.911Z,984.00
2019-03-04T05:38:31.859Z,983.99
2019-03-04T05:39:31.816Z,984.03
2019-03-04T05:40:31.789Z,984.10
2019-03-04T05:41:31.776Z,984.01
2019-03-04T05:42:31.709Z,983.99
2019-03-04T05:43:31.674Z,983.92
2019-03-04T05:44:31.621Z,983.94
2019-03-04T05:45:31.579Z,983.95
2019-03-04T05:46:31.531Z,983.98
2019-03-04T05:47:31.520Z,983.82
2019-03-04T05:48:31.460Z,983.87
2019-03-04T05:49:31.419Z,983.75
2019-03-04T05:50:31.377Z,983.79
2019-03-04T05:51:31.335Z,983.66
2019-03-04T05:52:31.315Z,983.88
2019-03-04T05:53:31.246Z,983.80
2019-03-04T05:54:31.229Z,983.70
2019-03-04T05:55:31.174Z,983.66
2019-03-04T05:56:31.127Z,983.39
2019-03-04T05:57:31.092Z,983.44
2019-03-04T05:58:31.071Z,983.31
2019-03-04T05:59:31.002Z,983.35
2019-03-04T06:00:30.972Z,983.35
2019-03-04T06:01:30.953Z,983.38
2019-03-04T06:02:30.894Z,983.26
2019-03-04T06:03:30.852Z,984.18
2019-03-04T06:04:30.805Z,986.06
2019-03-04T06:05:30.761Z,986.42
2019-03-04T06:06:30.713Z,986.58
2019-03-04T06:07:30.719Z,985.89
2019-03-04T06:08:30.648Z,985.91
2019-03-04T06:09:30.599Z,985.85
2019-03-04T06:10:30.558Z,985.99
2019-03-04T06:11:30.537Z,985.95
2019-03-04T06:12:30.487Z,985.77
2019-03-04T06:13:30.467Z,985.96
2019-03-04T06:14:30.391Z,986.04
2019-03-04T06:15:30.352Z,986.01
2019-03-04T06:16:30.317Z,986.01
2019-03-04T06:17:30.320Z,986.03
2019-03-04T06:18:30.207Z,985.91
2019-03-04T06:19:30.172Z,985.77
2019-03-04T06:20:30.136Z,986.09
2019-03-04T06:21:30.094Z,986.07
2019-03-04T06:22:30.075Z,985.77
2019-03-04T06:23:30.021Z,985.99
2019-03-04T06:24:29.955Z,985.69
2019-03-04T06:25:29.914Z,985.90
2019-03-04T06:26:29.877Z,985.98
2019-03-04T06:27:29.851Z,985.83
2019-03-04T06:28:29.810Z,985.95
2019-03-04T06:29:29.740Z,985.84
2019-03-04T06:30:29.698Z,985.90
2019-03-04T06:31:29.643Z,985.81
2019-03-04T06:32:29.606Z,985.94
2019-03-04T06:33:29.592Z,985.95
2019-03-04T06:34:29.518Z,985.86
2019-03-04T06:35:29.481Z,985.83
2019-03-04T06:36:29.429Z,985.45
2019-03-04T06:37:29.383Z,985.58
2019-03-04T06:38:29.364Z,985.48
2019-03-04T06:39:29.296Z,985.24
2019-03-04T06:40:29.262Z,985.50
2019-03-04T06:41:29.216Z,985.49
2019-03-04T06:42:29.170Z,985.56
2019-03-04T06:43:29.142Z,985.53
2019-03-04T06:44:29.112Z,985.31
2019-03-04T06:45:29.043Z,984.82
2019-03-04T06:46:28.997Z,984.98
2019-03-04T06:47:28.955Z,985.06
2019-03-04T06:48:28.904Z,984.86
2019-03-04T06:49:28.883Z,984.58
2019-03-04T06:50:28.846Z,984.67
2019-03-04T06:51:28.772Z,984.73
2019-03-04T06:52:28.733Z,984.75
2019-03-04T06:53:28.688Z,984.81
2019-03-04T06:54:28.644Z,984.76
2019-03-04T06:55:28.600Z,984.72
2019-03-04T06:56:28.580Z,984.86
2019-03-04T06:57:28.982Z,984.73
2019-03-04T06:58:28.470Z,984.80
2019-03-04T06:59:28.429Z,984.74
2019-03-04T07:00:28.398Z,984.74
2019-03-04T07:01:28.355Z,984.94
2019-03-04T07:02:28.289Z,984.94
2019-03-04T07:03:28.242Z,984.93
2019-03-04T07:04:28.206Z,984.85
2019-03-04T07:05:28.162Z,984.75
2019-03-04T07:06:28.141Z,984.88
2019-03-04T07:07:28.097Z,984.86
2019-03-04T07:08:28.214Z,985.01
2019-03-04T07:09:28.146Z,984.91
2019-03-04T07:10:28.127Z,985.04
2019-03-04T07:11:27.897Z,984.91
2019-03-04T07:12:27.881Z,984.94
2019-03-04T07:13:27.814Z,985.04
2019-03-04T07:14:27.763Z,985.06
2019-03-04T07:15:27.722Z,985.00
2019-03-04T07:16:27.687Z,985.02
2019-03-04T07:17:27.680Z,984.96
2019-03-04T07:18:27.604Z,985.12
2019-03-04T07:19:27.557Z,985.08
2019-03-04T07:20:27.504Z,985.04
2019-03-04T07:21:27.580Z,984.96
2019-03-04T07:22:27.421Z,985.08
2019-03-04T07:23:27.401Z,985.00
2019-03-04T07:24:27.334Z,984.83
2019-03-04T07:25:27.291Z,984.99
2019-03-04T07:26:27.246Z,984.86
2019-03-04T07:27:27.204Z,984.97
2019-03-04T07:28:27.195Z,984.83
2019-03-04T07:29:27.115Z,984.93
2019-03-04T07:30:27.076Z,984.92
2019-03-04T07:31:27.030Z,984.95
2019-03-04T07:32:26.979Z,984.99
2019-03-04T07:33:27.101Z,984.95
2019-03-04T07:34:27.026Z,984.99
2019-03-04T07:35:26.860Z,985.12
2019-03-04T07:36:26.815Z,985.03
2019-03-04T07:37:26.774Z,985.10
2019-03-04T07:38:26.755Z,985.07
2019-03-04T07:39:26.700Z,984.89
2019-03-04T07:40:26.635Z,984.75
2019-03-04T07:41:26.596Z,984.93
2019-03-04T07:42:26.554Z,985.00
2019-03-04T07:43:26.536Z,985.05
2019-03-04T07:44:26.523Z,985.07
2019-03-04T07:45:26.514Z,985.05
2019-03-04T07:46:26.407Z,985.10
2019-03-04T07:47:26.361Z,985.11
2019-03-04T07:48:26.343Z,985.13
2019-03-04T07:49:26.278Z,985.21
2019-03-04T07:50:26.219Z,985.13
2019-03-04T07:51:26.184Z,985.09
2019-03-04T07:52:26.142Z,985.13
2019-03-04T07:53:26.110Z,985.14
2019-03-04T07:54:26.051Z,985.11
2019-03-04T07:55:26.029Z,985.20
2019-03-04T07:56:25.963Z,985.26
2019-03-04T07:57:25.917Z,985.34
2019-03-04T07:58:25.971Z,985.34
2019-03-04T07:59:25.885Z,985.28
2019-03-04T08:00:25.797Z,985.22
2019-03-04T08:01:25.770Z,985.33
2019-03-04T08:02:25.717Z,985.26
2019-03-04T08:03:25.671Z,985.22
2019-03-04T08:04:25.680Z,985.45
2019-03-04T08:05:25.583Z,985.19
2019-03-04T08:06:25.563Z,985.35
2019-03-04T08:07:25.545Z,985.23
2019-03-04T08:08:25.456Z,985.36
2019-03-04T08:09:25.436Z,985.38
2019-03-04T08:10:25.428Z,985.32
2019-03-04T08:11:25.342Z,985.33
2019-03-04T08:12:25.387Z,985.39
2019-03-04T08:13:25.242Z,985.38
2019-03-04T08:14:25.244Z,985.29
2019-03-04T08:15:25.155Z,985.01
2019-03-04T08:16:25.124Z,985.38
2019-03-04T08:17:25.095Z,985.12
2019-03-04T08:18:25.071Z,985.26
2019-03-04T08:19:24.990Z,985.38
2019-03-04T08:20:24.961Z,985.04
2019-03-04T08:21:24.922Z,985.24
2019-03-04T08:22:24.877Z,985.42
2019-03-04T08:23:24.856Z,985.41
2019-03-04T08:24:24.807Z,985.43
2019-03-04T08:25:24.785Z,985.47
2019-03-04T08:26:24.736Z,985.55
2019-03-04T08:27:24.669Z,985.54
2019-03-04T08:28:24.617Z,985.41
2019-03-04T08:29:24.605Z,985.69
2019-03-04T08:30:24.551Z,985.52
2019-03-04T08:31:24.503Z,985.60
2019-03-04T08:32:24.448Z,985.65
2019-03-04T08:33:24.415Z,986.06
2019-03-04T08:34:31.060Z,985.69
2019-03-04T08:35:24.347Z,985.62
2019-03-04T08:36:24.336Z,985.72
2019-03-04T08:37:24.282Z,985.86
2019-03-04T08:38:24.247Z,985.69
2019-03-04T08:39:24.149Z,985.99
2019-03-04T08:40:24.170Z,986.28
2019-03-04T08:41:24.122Z,987.27
2019-03-04T08:42:24.043Z,985.75
2019-03-04T08:43:24.000Z,986.24
2019-03-04T08:44:23.964Z,987.04
2019-03-04T08:45:23.958Z,986.38
2019-03-04T08:46:23.912Z,987.28
2019-03-04T08:47:23.898Z,985.80
2019-03-04T08:48:23.792Z,985.90
2019-03-04T08:49:23.769Z,985.78
2019-03-04T08:50:23.722Z,987.26
2019-03-04T08:51:23.664Z,987.17
2019-03-04T08:52:23.664Z,985.88
2019-03-04T08:53:23.591Z,985.75
2019-03-04T08:54:23.563Z,985.98
2019-03-04T08:55:23.513Z,987.16
2019-03-04T08:56:23.498Z,987.17
2019-03-04T08:57:23.442Z,986.22
2019-03-04T08:58:23.418Z,985.79
2019-03-04T08:59:23.349Z,985.89
2019-03-04T09:00:23.304Z,986.02
2019-03-04T09:01:23.288Z,986.79
2019-03-04T09:02:23.227Z,987.08
2019-03-04T09:03:23.216Z,986.14
2019-03-04T09:04:23.162Z,985.88
2019-03-04T09:05:23.137Z,985.91
2019-03-04T09:06:23.078Z,986.14
2019-03-04T09:07:23.117Z,985.95
2019-03-04T09:08:23.107Z,985.74
2019-03-04T09:09:22.976Z,985.88
2019-03-04T09:10:22.932Z,985.94
2019-03-04T09:11:22.912Z,985.86
2019-03-04T09:12:22.884Z,985.81
2019-03-04T09:13:23.006Z,986.12
2019-03-04T09:14:22.875Z,985.88
2019-03-04T09:15:23.254Z,985.70
2019-03-04T09:16:22.786Z,985.82
2019-03-04T09:17:22.775Z,985.68
2019-03-04T09:18:22.930Z,985.80
2019-03-04T09:19:22.825Z,985.77
2019-03-04T09:20:23.061Z,985.87
2019-03-04T09:21:22.501Z,985.73
2019-03-04T09:22:22.621Z,985.68
2019-03-04T09:23:22.421Z,985.95
2019-03-04T09:24:22.562Z,985.90
2019-03-04T09:25:30.137Z,985.80
2019-03-04T09:26:22.303Z,985.71
2019-03-04T09:27:22.341Z,985.78
2019-03-04T09:28:22.260Z,985.65
2019-03-04T09:29:22.380Z,985.66
2019-03-04T09:30:22.308Z,985.71
2019-03-04T09:31:22.230Z,985.49
2019-03-04T09:32:22.059Z,985.50
2019-03-04T09:33:22.188Z,985.66
2019-03-04T09:34:22.068Z,985.47
2019-03-04T09:35:21.977Z,985.68
2019-03-04T09:36:21.911Z,985.66
2019-03-04T09:37:22.010Z,985.65
2019-03-04T09:38:21.845Z,985.73
2019-03-04T09:39:22.015Z,985.69
2019-03-04T09:40:21.872Z,985.36
2019-03-04T09:41:21.754Z,985.68
2019-03-04T09:42:21.795Z,985.58
2019-03-04T09:43:21.677Z,985.66
2019-03-04T09:44:21.615Z,985.65
2019-03-04T09:45:21.599Z,985.76
2019-03-04T09:46:21.538Z,985.62
2019-03-04T09:47:21.443Z,985.35
2019-03-04T09:48:21.413Z,985.39
2019-03-04T09:49:21.400Z,985.65
2019-03-04T09:50:21.345Z,985.74
2019-03-04T09:51:24.514Z,985.32
2019-03-04T09:52:21.262Z,985.70
2019-03-04T09:53:21.208Z,985.61
2019-03-04T09:54:21.193Z,985.44
2019-03-04T09:55:21.154Z,985.76
2019-03-04T09:56:21.119Z,985.84
2019-03-04T09:57:21.075Z,985.38
2019-03-04T09:58:21.009Z,985.69
2019-03-04T09:59:20.953Z,985.76
2019-03-04T10:00:20.945Z,985.69
2019-03-04T10:01:20.878Z,985.76
2019-03-04T10:02:20.838Z,985.87
2019-03-04T10:03:20.801Z,985.77
2019-03-04T10:04:20.752Z,985.78
2019-03-04T10:05:20.708Z,985.72
2019-03-04T10:06:20.697Z,985.75
2019-03-04T10:07:20.644Z,985.73
2019-03-04T10:08:20.593Z,985.75
2019-03-04T10:09:20.581Z,985.64
2019-03-04T10:10:20.508Z,985.62
2019-03-04T10:11:20.470Z,985.64
2019-03-04T10:12:20.489Z,985.60
2019-03-04T10:13:20.395Z,985.48
2019-03-04T10:14:20.403Z,985.52
2019-03-04T10:15:20.654Z,985.67
2019-03-04T10:16:20.284Z,985.48
2019-03-04T10:17:20.249Z,985.46
2019-03-04T10:18:20.223Z,985.44
2019-03-04T10:19:20.148Z,985.45
2019-03-04T10:20:20.118Z,985.23
2019-03-04T10:21:20.071Z,985.36
2019-03-04T10:22:20.053Z,985.53
2019-03-04T10:23:19.994Z,985.48
2019-03-04T10:24:19.946Z,985.42
2019-03-04T10:25:19.904Z,985.57
2019-03-04T10:26:22.996Z,985.28
2019-03-04T10:27:19.883Z,985.41
2019-03-04T10:28:19.787Z,985.41
2019-03-04T10:29:19.770Z,985.40
2019-03-04T10:30:19.682Z,985.31
2019-03-04T10:31:19.652Z,985.32
2019-03-04T10:32:19.639Z,985.34
2019-03-04T10:33:19.619Z,985.48
2019-03-04T10:34:19.533Z,985.43
2019-03-04T10:35:19.489Z,985.36
2019-03-04T10:36:19.455Z,985.52
2019-03-04T10:37:19.403Z,985.49
2019-03-04T10:38:22.491Z,985.40
2019-03-04T10:39:22.557Z,985.46
2019-03-04T10:40:19.287Z,985.52
2019-03-04T10:41:19.241Z,985.46
2019-03-04T10:42:19.203Z,985.49
2019-03-04T10:43:19.160Z,985.27
2019-03-04T10:44:19.135Z,985.41
2019-03-04T10:45:19.132Z,985.53
2019-03-04T10:46:19.025Z,985.51
2019-03-04T10:47:19.017Z,985.52
2019-03-04T10:48:18.958Z,985.63
2019-03-04T10:49:18.950Z,985.35
2019-03-04T10:50:18.874Z,985.45
2019-03-04T10:51:18.852Z,985.42
2019-03-04T10:52:18.804Z,985.43
2019-03-04T10:53:18.754Z,985.44
2019-03-04T10:54:18.718Z,985.48
2019-03-04T10:55:18.753Z,985.58
2019-03-04T10:56:18.631Z,985.55
2019-03-04T10:57:18.563Z,985.57
2019-03-04T10:58:18.561Z,985.52
2019-03-04T10:59:18.488Z,985.51
2019-03-04T11:00:18.472Z,985.33
2019-03-04T11:01:18.426Z,985.32
2019-03-04T11:02:18.406Z,985.41
2019-03-04T11:03:18.324Z,985.30
2019-03-04T11:04:18.326Z,985.38
2019-03-04T11:05:18.284Z,985.31
2019-03-04T11:06:18.210Z,985.31
2019-03-04T11:07:18.175Z,985.19
2019-03-04T11:08:18.137Z,985.51
2019-03-04T11:09:18.075Z,985.50
2019-03-04T11:10:18.049Z,985.85
2019-03-04T11:11:18.067Z,985.86
2019-03-04T11:12:18.556Z,986.29
2019-03-04T11:13:17.931Z,986.30
2019-03-04T11:14:17.874Z,986.33
2019-03-04T11:15:18.001Z,986.51
2019-03-04T11:16:17.801Z,986.67
2019-03-04T11:17:17.740Z,986.65
2019-03-04T11:18:17.717Z,986.50
2019-03-04T11:19:17.685Z,986.64
2019-03-04T11:20:17.625Z,986.54
2019-03-04T11:21:17.596Z,986.66
2019-03-04T11:22:17.586Z,986.68
2019-03-04T11:23:17.601Z,986.65
2019-03-04T11:24:17.441Z,986.55
2019-03-04T11:25:17.409Z,986.64
2019-03-04T11:26:17.462Z,986.56
2019-03-04T11:27:17.346Z,986.72
2019-03-04T11:28:17.582Z,986.69
2019-03-04T11:29:17.266Z,986.64
2019-03-04T11:30:17.233Z,986.64
2019-03-04T11:31:17.291Z,986.66
2019-03-04T11:32:17.157Z,986.52
2019-03-04T11:33:17.059Z,986.54
2019-03-04T11:34:17.129Z,986.67
2019-03-04T11:35:17.044Z,986.49
2019-03-04T11:36:17.044Z,986.80
2019-03-04T11:37:16.958Z,986.82
2019-03-04T11:38:16.853Z,986.84
2019-03-04T11:39:16.826Z,986.90
2019-03-04T11:40:16.763Z,986.79
2019-03-04T11:41:16.748Z,986.85
2019-03-04T11:42:16.706Z,986.94
2019-03-04T11:43:16.630Z,986.72
2019-03-04T11:44:16.611Z,986.93
2019-03-04T11:45:16.576Z,987.02
2019-03-04T11:46:16.541Z,986.96
2019-03-04T11:47:16.461Z,986.99
2019-03-04T11:48:16.409Z,987.02
2019-03-04T11:49:16.441Z,987.11
2019-03-04T11:50:16.317Z,986.98
2019-03-04T11:51:16.308Z,987.14
2019-03-04T11:52:16.256Z,987.14
2019-03-04T11:53:16.201Z,987.27
2019-03-04T11:54:16.146Z,987.19
2019-03-04T11:55:16.165Z,987.27
2019-03-04T11:56:16.206Z,987.25
2019-03-04T11:57:16.113Z,987.30
2019-03-04T11:58:16.012Z,987.34
2019-03-04T11:59:15.948Z,987.41
2019-03-04T12:00:15.887Z,987.42
2019-03-04T12:01:15.835Z,987.57
2019-03-04T12:02:15.860Z,987.52
2019-03-04T12:03:15.884Z,987.56
2019-03-04T12:04:15.727Z,987.60
2019-03-04T12:05:15.697Z,987.67
2019-03-04T12:06:15.634Z,987.68
2019-03-04T12:07:15.581Z,987.68
2019-03-04T12:08:15.572Z,987.80
2019-03-04T12:09:15.542Z,987.76
2019-03-04T12:10:15.460Z,987.77
2019-03-04T12:11:15.435Z,987.81
2019-03-04T12:12:15.423Z,987.86
2019-03-04T12:13:15.345Z,987.95
2019-03-04T12:14:15.328Z,988.00
2019-03-04T12:15:15.248Z,987.93
2019-03-04T12:16:15.224Z,988.07
2019-03-04T12:17:15.185Z,988.00
2019-03-04T12:18:15.188Z,988.13
2019-03-04T12:19:15.091Z,988.20
2019-03-04T12:20:15.099Z,988.26
2019-03-04T12:21:15.004Z,988.39
2019-03-04T12:22:14.971Z,988.34
2019-03-04T12:23:14.929Z,988.55
2019-03-04T12:24:14.938Z,988.47
2019-03-04T12:25:14.884Z,988.44
2019-03-04T12:26:14.798Z,988.44
2019-03-04T12:27:14.744Z,988.52
2019-03-04T12:28:14.709Z,988.55